Time;durP1;ratioP1;P1;durP2;ratioP2;P2;SDS_P1;SDS_P2;PMS_P1;PMS_P2;Temp;Humidity;BMP_temperature;BMP_pressure;BME280_temperature;BME280_humidity;BME280_pressure;Samples;Min_cycle;Max_cycle;Signal;HPM_P1;HPM_P2
2023/02/08 00:03:07;;;;;;;3.40;2.60;;;13.90;66.40;;;;;;10456657;28;20028;-55
2023/02/08 00:08:08;;;;;;;4.53;2.72;;;13.80;66.50;;;;;;10471456;28;20068;-56
2023/02/08 00:13:09;;;;;;;4.18;2.67;;;13.80;66.50;;;;;;10495332;28;20027;-56
2023/02/08 00:18:10;;;;;;;3.42;2.00;;;13.80;66.50;;;;;;10468716;28;20048;-55
2023/02/08 00:23:12;;;;;;;3.40;2.40;;;13.80;66.50;;;;;;10483718;28;20364;-57
2023/02/08 00:28:16;;;;;;;3.80;2.40;;;13.80;66.40;;;;;;10455109;28;20036;-56
2023/02/08 00:33:16;;;;;;;3.35;2.10;;;13.70;66.30;;;;;;10466604;28;20052;-56
2023/02/08 00:38:17;;;;;;;3.55;2.40;;;13.70;66.40;;;;;;10484335;28;20123;-56
2023/02/08 00:43:17;;;;;;;2.97;1.92;;;13.70;66.50;;;;;;10449334;28;20072;-56
2023/02/08 00:48:18;;;;;;;3.70;2.70;;;13.70;66.50;;;;;;10465839;28;20131;-55
2023/02/08 00:53:19;;;;;;;3.95;2.70;;;13.70;66.50;;;;;;10466198;28;20103;-56
2023/02/08 00:58:20;;;;;;;3.47;2.15;;;13.70;66.10;;;;;;10493973;28;20107;-56
2023/02/08 01:03:22;;;;;;;3.25;2.20;;;13.70;66.60;;;;;;10508047;28;20028;-57
2023/02/08 01:08:23;;;;;;;3.38;2.22;;;13.60;66.10;;;;;;10502926;28;20028;-56
2023/02/08 01:13:23;;;;;;;2.95;2.25;;;13.60;66.30;;;;;;10494147;28;20430;-56
2023/02/08 01:18:24;;;;;;;3.80;2.45;;;13.60;66.20;;;;;;10491133;28;20495;-56
2023/02/08 01:23:25;;;;;;;4.53;2.30;;;13.60;66.20;;;;;;10491256;28;20027;-56
2023/02/08 01:28:25;;;;;;;3.03;2.17;;;13.60;66.20;;;;;;10491444;28;20044;-57
2023/02/08 01:33:26;;;;;;;3.42;2.20;;;13.50;66.20;;;;;;10479179;28;20024;-56
2023/02/08 01:38:27;;;;;;;3.90;2.13;;;13.50;66.20;;;;;;10498002;28;20324;-57
2023/02/08 01:43:33;;;;;;;2.40;1.75;;;13.50;66.20;;;;;;10495806;28;20594;-57
2023/02/08 01:48:39;;;;;;;3.10;2.08;;;13.50;66.20;;;;;;10493123;28;20399;-56
2023/02/08 01:53:41;;;;;;;3.53;2.80;;;13.50;66.10;;;;;;10478992;28;20025;-56
2023/02/08 01:58:48;;;;;;;3.22;2.00;;;13.50;66.10;;;;;;10472190;28;20008;-55
2023/02/08 02:03:49;;;;;;;2.83;1.90;;;13.50;66.10;;;;;;10472369;28;20029;-56
2023/02/08 02:09:06;;;;;;;2.50;1.90;;;13.40;66.10;;;;;;10475873;28;20450;-54
2023/02/08 02:14:08;;;;;;;3.42;2.42;;;13.40;66.00;;;;;;10489975;28;20112;-56
2023/02/08 02:19:51;;;;;;;4.30;2.55;;;13.40;66.60;;;;;;10452639;28;20423;-55
2023/02/08 02:25:37;;;;;;;2.83;2.10;;;13.30;66.50;;;;;;10489054;28;20124;-56
2023/02/08 02:31:15;;;;;;;2.47;2.20;;;13.40;66.00;;;;;;10473814;28;20458;-56
2023/02/08 02:36:32;;;;;;;2.65;1.88;;;13.30;66.00;;;;;;10488487;28;20013;-56
2023/02/08 02:47:57;;;;;;;3.00;2.00;;;13.30;65.80;;;;;;10363269;28;20041;-55
2023/02/08 02:53:40;;;;;;;3.75;2.10;;;13.30;65.80;;;;;;10470019;28;20050;-55
2023/02/08 02:58:43;;;;;;;3.63;2.22;;;13.30;65.80;;;;;;10437426;28;20037;-57
2023/02/08 03:03:43;;;;;;;2.97;2.10;;;13.30;64.00;;;;;;10469721;28;20024;-54
2023/02/08 03:09:20;;;;;;;3.78;2.15;;;13.30;65.10;;;;;;10487327;28;20783;-55
2023/02/08 03:14:33;;;;;;;3.20;2.00;;;13.30;64.00;;;;;;10486854;28;20024;-56
2023/02/08 03:20:08;;;;;;;3.47;2.05;;;13.40;63.20;;;;;;10473350;28;20203;-54
2023/02/08 03:25:21;;;;;;;4.10;2.28;;;13.40;63.10;;;;;;10478384;28;20036;-56
2023/02/08 03:30:54;;;;;;;3.13;1.98;;;13.40;63.20;;;;;;10469079;28;20051;-57
2023/02/08 03:36:11;;;;;;;3.58;2.05;;;13.40;63.10;;;;;;10463216;28;20119;-55
2023/02/08 03:41:18;;;;;;;2.78;2.38;;;13.40;62.90;;;;;;10469329;28;20024;-56
2023/02/08 03:46:46;;;;;;;3.72;2.80;;;13.60;62.70;;;;;;10468202;28;20036;-55
2023/02/08 03:51:47;;;;;;;3.33;2.28;;;13.70;62.10;;;;;;10450621;28;20019;-56
2023/02/08 03:57:16;;;;;;;2.40;1.73;;;13.90;61.50;;;;;;10485423;28;20615;-55
2023/02/08 04:02:20;;;;;;;2.25;1.83;;;14.10;61.00;;;;;;10484943;28;20032;-57
2023/02/08 04:07:21;;;;;;;3.78;2.10;;;14.30;60.60;;;;;;10467484;28;20032;-57
2023/02/08 04:12:22;;;;;;;3.00;1.73;;;14.40;60.20;;;;;;10466934;28;20028;-56
2023/02/08 04:17:23;;;;;;;4.20;2.33;;;14.60;59.90;;;;;;10466121;28;20108;-56
2023/02/08 04:22:23;;;;;;;3.22;1.73;;;14.70;59.50;;;;;;10444622;28;20024;-55
2023/02/08 04:27:24;;;;;;;2.10;1.65;;;14.80;59.30;;;;;;10470668;28;20091;-55
2023/02/08 04:32:25;;;;;;;3.33;1.98;;;14.90;59.10;;;;;;10483677;28;20491;-55
2023/02/08 04:37:25;;;;;;;3.45;1.77;;;14.90;59.10;;;;;;10466960;28;20068;-56
2023/02/08 04:42:26;;;;;;;2.88;1.35;;;15.00;59.00;;;;;;10437048;28;20442;-56
2023/02/08 04:47:27;;;;;;;2.63;1.60;;;15.00;58.90;;;;;;10475981;28;20058;-55
2023/02/08 04:52:28;;;;;;;2.65;1.75;;;15.00;58.70;;;;;;10483702;28;20028;-54
2023/02/08 04:57:28;;;;;;;3.22;1.80;;;15.10;58.70;;;;;;10440099;28;20117;-56
2023/02/08 05:02:29;;;;;;;2.08;1.25;;;15.10;58.70;;;;;;10442209;28;20021;-56
2023/02/08 05:07:30;;;;;;;2.58;1.40;;;15.10;58.60;;;;;;10466140;28;20130;-56
2023/02/08 05:12:31;;;;;;;2.92;1.50;;;15.20;58.50;;;;;;10476290;28;20012;-56
2023/02/08 05:17:31;;;;;;;3.53;1.98;;;15.30;58.40;;;;;;10432176;28;20016;-56
2023/02/08 05:22:32;;;;;;;2.35;1.35;;;15.30;58.30;;;;;;10463913;28;20059;-55
2023/02/08 05:27:34;;;;;;;2.45;1.42;;;15.30;58.30;;;;;;10450017;28;20044;-57
2023/02/08 05:32:35;;;;;;;2.78;1.83;;;15.30;58.30;;;;;;10485178;28;20013;-56
2023/02/08 05:37:35;;;;;;;2.63;1.40;;;15.40;58.40;;;;;;10470750;28;20048;-56
2023/02/08 05:42:36;;;;;;;2.40;1.77;;;15.40;58.50;;;;;;10472225;28;20291;-55
2023/02/08 05:47:37;;;;;;;1.92;1.35;;;15.40;58.50;;;;;;10468292;28;20054;-57
2023/02/08 05:52:37;;;;;;;2.53;1.40;;;15.40;58.60;;;;;;10482769;28;20108;-57
2023/02/08 05:57:38;;;;;;;5.22;1.75;;;15.40;58.70;;;;;;10456011;28;20017;-57
2023/02/08 06:02:39;;;;;;;2.10;1.30;;;15.50;59.20;;;;;;10485915;28;20086;-56
2023/02/08 06:07:39;;;;;;;3.63;1.80;;;15.60;59.60;;;;;;10475643;28;20060;-57
2023/02/08 06:12:40;;;;;;;3.60;1.45;;;15.70;59.60;;;;;;10486623;28;20099;-55
2023/02/08 06:17:40;;;;;;;5.93;2.08;;;15.70;59.60;;;;;;10471799;28;20042;-57
2023/02/08 06:22:41;;;;;;;7.18;2.22;;;15.80;60.20;;;;;;10474438;28;20024;-56
2023/02/08 06:27:42;;;;;;;19.83;2.65;;;15.80;61.40;;;;;;10474411;28;20127;-57
2023/02/08 06:32:42;;;;;;;7.28;2.13;;;15.90;60.70;;;;;;10457968;28;20055;-57
2023/02/08 06:37:43;;;;;;;12.00;2.60;;;15.90;60.40;;;;;;10450056;28;20111;-57
2023/02/08 06:42:46;;;;;;;18.35;2.67;;;15.90;60.80;;;;;;10476189;28;20458;-56
2023/02/08 06:47:46;;;;;;;17.30;3.50;;;15.90;61.10;;;;;;10477490;28;20448;-56
2023/02/08 06:52:47;;;;;;;21.25;3.97;;;16.00;60.60;;;;;;10489218;28;20059;-58
2023/02/08 06:57:47;;;;;;;10.82;3.08;;;16.00;60.70;;;;;;10478636;28;20787;-56
2023/02/08 07:02:48;;;;;;;13.68;3.25;;;16.20;60.70;;;;;;10461443;28;20109;-58
2023/02/08 07:07:49;;;;;;;21.17;3.50;;;16.20;60.50;;;;;;10489124;28;20032;-56
2023/02/08 07:12:50;;;;;;;17.13;4.30;;;15.90;60.80;;;;;;10493165;28;20116;-59
2023/02/08 07:17:51;;;;;;;15.90;4.63;;;15.70;60.20;;;;;;10486824;28;20436;-55
2023/02/08 07:22:51;;;;;;;12.43;4.15;;;16.00;58.60;;;;;;10480028;28;20021;-53
2023/02/08 07:27:52;;;;;;;11.05;4.57;;;16.10;58.20;;;;;;10490942;28;20037;-54
2023/02/08 07:32:53;;;;;;;12.63;5.38;;;15.90;58.80;;;;;;10471744;28;20099;-55
2023/02/08 07:37:53;;;;;;;9.10;3.80;;;16.10;58.20;;;;;;10501325;28;20026;-54
2023/02/08 07:42:54;;;;;;;10.18;3.80;;;16.20;58.00;;;;;;10488142;28;20066;-54
2023/02/08 07:47:55;;;;;;;10.02;4.60;;;16.20;58.10;;;;;;10476104;28;20067;-54
2023/02/08 07:52:55;;;;;;;8.43;3.63;;;16.20;58.20;;;;;;10472408;28;20032;-54
2023/02/08 07:57:57;;;;;;;11.05;3.70;;;16.20;58.20;;;;;;10473077;28;20165;-54
2023/02/08 08:02:58;;;;;;;10.15;4.28;;;16.20;58.20;;;;;;10469832;28;20414;-55
2023/02/08 08:07:58;;;;;;;13.15;3.97;;;16.30;58.10;;;;;;10488396;28;20119;-54
2023/02/08 08:12:59;;;;;;;10.35;3.17;;;16.30;58.10;;;;;;10488095;28;20032;-56
2023/02/08 08:18:00;;;;;;;9.98;3.80;;;16.40;58.10;;;;;;10470707;28;20487;-55
2023/02/08 08:23:01;;;;;;;9.75;3.97;;;16.30;58.50;;;;;;10461139;28;20032;-56
2023/02/08 08:28:02;;;;;;;9.15;3.03;;;16.20;58.50;;;;;;10480928;28;20043;-57
2023/02/08 08:33:03;;;;;;;12.95;4.22;;;16.20;58.60;;;;;;10451488;28;20028;-56
2023/02/08 08:38:03;;;;;;;6.15;3.22;;;16.30;58.30;;;;;;10463139;28;20017;-56
2023/02/08 08:43:04;;;;;;;5.82;3.42;;;16.40;57.90;;;;;;10477827;28;20096;-58
2023/02/08 08:48:05;;;;;;;5.18;3.13;;;16.40;58.00;;;;;;10473747;28;20136;-56
2023/02/08 08:53:06;;;;;;;8.18;3.83;;;16.50;57.90;;;;;;10446344;28;20027;-55
2023/02/08 08:58:06;;;;;;;6.57;3.50;;;16.40;58.30;;;;;;10465416;28;20613;-56
2023/02/08 09:03:07;;;;;;;8.40;2.88;;;16.40;58.50;;;;;;10479128;28;20119;-56
2023/02/08 09:08:08;;;;;;;6.70;3.45;;;16.30;59.10;;;;;;10467917;28;20112;-56
2023/02/08 09:13:09;;;;;;;5.13;3.15;;;16.20;59.60;;;;;;10438193;28;20099;-57
2023/02/08 09:18:10;;;;;;;8.80;2.97;;;16.10;60.00;;;;;;10492749;28;20067;-55
2023/02/08 09:23:11;;;;;;;5.97;3.85;;;16.10;60.20;;;;;;10492779;28;20466;-56
2023/02/08 09:28:12;;;;;;;4.63;3.08;;;16.10;60.10;;;;;;10474728;28;20068;-55
2023/02/08 09:33:12;;;;;;;7.72;3.35;;;16.10;60.40;;;;;;10495530;28;20044;-56
2023/02/08 09:38:13;;;;;;;5.20;2.60;;;16.00;60.70;;;;;;10474275;28;20033;-56
2023/02/08 09:43:29;;;;;;;3.80;2.65;;;15.90;60.90;;;;;;10474310;28;20166;-56
2023/02/08 09:48:39;;;;;;;6.97;2.53;;;15.80;61.60;;;;;;10475607;28;20032;-56
2023/02/08 09:53:49;;;;;;;3.92;2.33;;;15.80;61.90;;;;;;10474278;28;20106;-56
2023/02/08 09:58:52;;;;;;;4.07;2.50;;;15.70;62.40;;;;;;10474592;28;20490;-56
2023/02/08 10:04:04;;;;;;;4.03;2.22;;;15.60;62.50;;;;;;10474026;28;20106;-56
2023/02/08 10:09:13;;;;;;;5.07;2.30;;;15.60;62.50;;;;;;10474268;28;20113;-56
2023/02/08 10:14:28;;;;;;;5.00;2.70;;;15.60;62.60;;;;;;10458090;28;20527;-55
2023/02/08 10:19:45;;;;;;;5.13;2.38;;;15.60;62.70;;;;;;10497874;28;20021;-56
2023/02/08 10:25:40;;;;;;;3.75;2.92;;;15.50;62.80;;;;;;10481864;28;20028;-56
2023/02/08 10:31:17;;;;;;;3.17;2.08;;;15.50;62.90;;;;;;10483952;28;20106;-56
2023/02/08 10:36:24;;;;;;;4.68;2.55;;;15.50;63.00;;;;;;10472326;28;20017;-55
2023/02/08 10:41:32;;;;;;;4.30;2.50;;;15.40;63.10;;;;;;10473910;28;20027;-57
2023/02/08 10:46:49;;;;;;;5.10;2.55;;;15.40;63.40;;;;;;10455558;28;20381;-55
2023/02/08 10:51:51;;;;;;;3.85;2.33;;;15.40;63.40;;;;;;10471053;28;20043;-56
2023/02/08 10:56:56;;;;;;;3.00;2.20;;;15.40;63.50;;;;;;10477547;28;20012;-56
2023/02/08 11:01:57;;;;;;;3.72;2.60;;;15.40;63.30;;;;;;10480059;28;20483;-56
2023/02/08 11:07:20;;;;;;;3.83;2.42;;;15.30;63.40;;;;;;10482878;28;20119;-56
2023/02/08 11:12:22;;;;;;;3.58;2.30;;;15.40;63.40;;;;;;10471500;28;20060;-57
2023/02/08 11:17:25;;;;;;;5.93;2.40;;;15.40;63.70;;;;;;10475983;28;20104;-55
2023/02/08 11:22:30;;;;;;;4.45;2.55;;;15.40;63.70;;;;;;10472916;28;20070;-56
2023/02/08 11:27:33;;;;;;;10.23;2.97;;;15.30;63.90;;;;;;10476838;28;20106;-55
2023/02/08 11:32:35;;;;;;;7.15;2.88;;;15.30;63.90;;;;;;10491793;28;20056;-56
2023/02/08 11:37:36;;;;;;;4.60;2.75;;;15.40;63.60;;;;;;10490958;28;20028;-56
2023/02/08 11:42:43;;;;;;;5.22;2.65;;;15.30;63.90;;;;;;10469415;28;20028;-57
2023/02/08 11:47:47;;;;;;;5.15;2.05;;;15.40;63.70;;;;;;10469469;28;20093;-56
2023/02/08 11:52:56;;;;;;;4.75;2.22;;;15.40;63.90;;;;;;10451611;28;20019;-56
2023/02/08 11:58:23;;;;;;;6.85;2.55;;;15.40;63.70;;;;;;10470826;28;20430;-55
2023/02/08 12:03:40;;;;;;;5.35;3.05;;;15.30;63.80;;;;;;10500026;28;20037;-56
2023/02/08 12:09:22;;;;;;;5.97;2.70;;;15.40;64.60;;;;;;10488393;28;20179;-56
2023/02/08 12:15:09;;;;;;;5.03;2.42;;;15.40;65.10;;;;;;10471819;28;20127;-54
2023/02/08 12:20:31;;;;;;;7.18;2.83;;;15.40;66.30;;;;;;10457742;28;20020;-56
2023/02/08 12:26:24;;;;;;;6.78;2.85;;;15.40;66.50;;;;;;10483711;28;20025;-57
2023/02/08 12:31:45;;;;;;;6.88;3.13;;;15.50;66.40;;;;;;10490226;28;20092;-57
2023/02/08 12:43:23;;;;;;;6.60;2.45;;;15.40;66.70;;;;;;10463572;28;20028;-57
2023/02/08 12:48:40;;;;;;;7.43;2.70;;;15.40;66.80;;;;;;10475891;28;20028;-56
2023/02/08 12:53:47;;;;;;;6.60;2.70;;;15.40;67.00;;;;;;10468258;28;20659;-55
2023/02/08 12:58:57;;;;;;;4.43;2.08;;;15.40;66.80;;;;;;10493096;28;20493;-56
2023/02/08 13:04:15;;;;;;;4.30;2.30;;;15.40;66.70;;;;;;10469896;28;20020;-55
2023/02/08 13:09:40;;;;;;;3.17;2.33;;;15.40;66.80;;;;;;10469461;28;20048;-57
2023/02/08 13:14:51;;;;;;;3.53;2.20;;;15.30;66.80;;;;;;10475741;28;20040;-56
2023/02/08 13:20:18;;;;;;;17.77;3.45;;;15.30;67.00;;;;;;10472110;28;20031;-59
2023/02/08 13:25:33;;;;;;;26.85;4.05;;;15.40;66.50;;;;;;10469790;28;20593;-56
2023/02/08 13:30:37;;;;;;;20.55;4.10;;;15.30;67.10;;;;;;10465157;28;20033;-57
2023/02/08 13:35:38;;;;;;;18.80;4.65;;;15.40;66.50;;;;;;10467651;28;20098;-57
2023/02/08 13:40:39;;;;;;;17.85;4.32;;;15.40;66.60;;;;;;10468622;28;20063;-56
2023/02/08 13:45:49;;;;;;;20.23;5.05;;;15.30;66.10;;;;;;10486610;28;20031;-57
2023/02/08 13:50:55;;;;;;;17.00;4.35;;;15.30;65.80;;;;;;10471225;28;20072;-57
2023/02/08 13:55:59;;;;;;;16.50;3.72;;;15.40;65.50;;;;;;10468653;28;20020;-56
2023/02/08 14:01:13;;;;;;;9.10;3.20;;;15.40;65.30;;;;;;10465365;28;20024;-57
2023/02/08 14:06:24;;;;;;;17.67;5.97;;;15.40;66.10;;;;;;10479049;28;20032;-56
2023/02/08 14:11:49;;;;;;;28.20;5.97;;;15.30;65.80;;;;;;10456441;28;20032;-57
2023/02/08 14:17:24;;;;;;;20.60;5.20;;;15.20;66.30;;;;;;10497793;28;20415;-56
2023/02/08 14:22:32;;;;;;;24.10;4.32;;;15.20;66.50;;;;;;10486494;28;20602;-57
2023/02/08 14:27:49;;;;;;;25.30;6.43;;;15.30;66.50;;;;;;10475108;28;20052;-56
2023/02/08 14:33:17;;;;;;;28.48;4.85;;;15.30;66.70;;;;;;10480558;28;20345;-57
2023/02/08 14:38:17;;;;;;;24.77;5.90;;;15.50;67.30;;;;;;10474723;28;20023;-55
2023/02/08 14:43:18;;;;;;;18.90;4.75;;;15.40;67.00;;;;;;10491283;28;20714;-56
2023/02/08 14:48:40;;;;;;;18.60;4.95;;;15.80;69.40;;;;;;10491338;28;20702;-56
2023/02/08 14:53:41;;;;;;;23.02;6.43;;;16.00;69.60;;;;;;10474710;28;20021;-56
2023/02/08 14:58:56;;;;;;;28.25;7.43;;;16.10;69.50;;;;;;10473640;28;20024;-57
2023/02/08 15:03:59;;;;;;;19.90;5.53;;;16.20;67.50;;;;;;10473073;28;20606;-55
2023/02/08 15:09:00;;;;;;;15.48;5.50;;;16.20;67.10;;;;;;10473453;28;20672;-57
2023/02/08 15:14:04;;;;;;;22.58;5.80;;;16.10;68.70;;;;;;10490143;28;20024;-58
2023/02/08 15:19:08;;;;;;;20.27;5.30;;;16.10;70.90;;;;;;10468649;28;20090;-59
2023/02/08 15:24:17;;;;;;;20.48;4.75;;;16.00;72.10;;;;;;10472323;28;20031;-56
2023/02/08 15:29:24;;;;;;;16.85;4.60;;;16.00;73.00;;;;;;10480826;28;20052;-58
2023/02/08 15:34:25;;;;;;;67.88;26.95;;;16.00;73.90;;;;;;10472368;28;20434;-58
2023/02/08 15:39:37;;;;;;;45.40;17.90;;;16.10;75.60;;;;;;10489642;28;20043;-59
2023/02/08 15:44:42;;;;;;;25.13;10.60;;;16.00;72.70;;;;;;10455325;28;20020;-58
2023/02/08 15:49:49;;;;;;;34.88;10.15;;;15.70;71.70;;;;;;10471298;28;20503;-55
2023/02/08 15:54:50;;;;;;;18.92;7.13;;;15.50;70.60;;;;;;10470632;28;20016;-56
2023/02/08 15:59:51;;;;;;;27.85;8.82;;;15.50;70.30;;;;;;10487085;28;20020;-55
2023/02/08 16:04:52;;;;;;;18.80;8.45;;;15.50;68.50;;;;;;10484031;28;20441;-56
2023/02/08 16:09:54;;;;;;;12.77;5.70;;;15.50;70.80;;;;;;10471346;28;20439;-56
2023/02/08 16:14:55;;;;;;;13.93;4.80;;;15.60;68.10;;;;;;10499754;28;20035;-56
2023/02/08 16:19:56;;;;;;;12.77;5.47;;;15.50;66.60;;;;;;10475532;28;20024;-56
2023/02/08 16:25:23;;;;;;;12.05;5.25;;;16.00;64.40;;;;;;10476079;28;20486;-55
2023/02/08 16:30:23;;;;;;;7.32;4.22;;;16.30;63.60;;;;;;10468887;28;20487;-56
2023/02/08 16:35:32;;;;;;;10.23;5.00;;;16.40;63.20;;;;;;10470750;28;20017;-57
2023/02/08 16:40:56;;;;;;;13.00;4.80;;;16.30;62.20;;;;;;10483371;28;20035;-57
2023/02/08 16:46:09;;;;;;;9.55;5.00;;;16.50;64.10;;;;;;10457135;28;20070;-56
2023/02/08 16:51:16;;;;;;;10.50;6.43;;;16.50;64.00;;;;;;10485341;28;20032;-58
2023/02/08 16:56:17;;;;;;;9.23;5.32;;;16.60;64.90;;;;;;10466965;28;20021;-55
2023/02/08 17:01:21;;;;;;;11.38;6.65;;;16.70;62.00;;;;;;10485786;28;20400;-54
2023/02/08 17:06:28;;;;;;;12.82;7.10;;;16.60;62.00;;;;;;10452435;28;20024;-56
2023/02/08 17:11:30;;;;;;;21.88;7.05;;;16.50;62.00;;;;;;10469552;28;20017;-57
2023/02/08 17:16:33;;;;;;;9.52;7.05;;;16.60;62.10;;;;;;10483975;28;20024;-56
2023/02/08 17:21:34;;;;;;;19.73;7.40;;;16.80;60.00;;;;;;10464400;28;20038;-56
2023/02/08 17:26:40;;;;;;;12.52;6.13;;;16.60;60.30;;;;;;10481203;28;20097;-55
2023/02/08 17:31:41;;;;;;;9.43;5.75;;;16.40;60.90;;;;;;10447076;28;20111;-57
2023/02/08 17:36:42;;;;;;;9.15;6.75;;;16.30;62.20;;;;;;10468396;28;20486;-55
2023/02/08 17:41:43;;;;;;;7.85;5.50;;;16.20;62.50;;;;;;10490520;28;20090;-56
2023/02/08 17:46:43;;;;;;;11.45;6.05;;;16.20;62.80;;;;;;10490513;28;20135;-55
2023/02/08 17:51:44;;;;;;;8.20;5.43;;;16.10;62.90;;;;;;10492845;28;20037;-57
2023/02/08 17:56:44;;;;;;;11.73;6.22;;;16.10;63.20;;;;;;10471833;28;20052;-54
2023/02/08 18:01:46;;;;;;;14.10;5.70;;;16.00;63.20;;;;;;10473354;28;20029;-55
2023/02/08 18:06:46;;;;;;;10.25;4.95;;;15.90;63.30;;;;;;10465371;28;20039;-56
2023/02/08 18:11:47;;;;;;;13.48;6.57;;;15.90;63.30;;;;;;10435704;28;20027;-58
2023/02/08 18:16:48;;;;;;;14.15;6.05;;;15.90;63.40;;;;;;10484927;28;20067;-57
2023/02/08 18:21:48;;;;;;;9.80;5.78;;;15.90;63.50;;;;;;10486976;28;20123;-55
2023/02/08 18:26:49;;;;;;;10.45;6.00;;;15.80;63.40;;;;;;10455261;28;20089;-56
2023/02/08 18:31:51;;;;;;;10.75;5.50;;;15.90;63.20;;;;;;10488016;28;20621;-56
2023/02/08 18:36:51;;;;;;;11.00;5.07;;;15.90;63.10;;;;;;10477702;28;20094;-57
2023/02/08 18:41:53;;;;;;;11.05;5.00;;;15.90;63.20;;;;;;10487791;28;20124;-56
2023/02/08 18:46:54;;;;;;;11.30;5.20;;;15.80;63.30;;;;;;10468710;28;20028;-57
2023/02/08 18:51:54;;;;;;;6.93;4.97;;;15.90;63.30;;;;;;10472600;28;20024;-56
2023/02/08 18:56:55;;;;;;;6.72;4.22;;;15.80;63.10;;;;;;10508857;28;20074;-56
2023/02/08 19:01:56;;;;;;;11.32;4.70;;;15.80;62.60;;;;;;10452945;28;20531;-56
2023/02/08 19:06:56;;;;;;;9.60;5.15;;;15.90;63.20;;;;;;10471981;28;20029;-55
2023/02/08 19:11:57;;;;;;;5.82;4.40;;;15.90;63.30;;;;;;10438474;28;20565;-55
2023/02/08 19:16:58;;;;;;;5.88;4.25;;;15.90;63.40;;;;;;10501989;28;20499;-55
2023/02/08 19:21:59;;;;;;;7.15;4.13;;;15.90;63.30;;;;;;10489443;28;20093;-56
2023/02/08 19:26:59;;;;;;;8.70;4.78;;;15.90;63.20;;;;;;10487581;28;20127;-56
2023/02/08 19:32:03;;;;;;;10.77;4.85;;;16.00;63.30;;;;;;10506503;28;20025;-57
2023/02/08 19:37:04;;;;;;;7.55;4.32;;;15.90;63.10;;;;;;10496734;28;20062;-56
2023/02/08 19:42:05;;;;;;;6.97;3.78;;;15.90;63.10;;;;;;10492580;28;20119;-56
2023/02/08 19:47:06;;;;;;;6.70;3.63;;;15.90;63.00;;;;;;10471753;28;20039;-55
2023/02/08 19:52:06;;;;;;;4.57;3.00;;;15.80;62.60;;;;;;10444048;28;20531;-56
2023/02/08 19:57:10;;;;;;;8.77;3.75;;;15.80;62.30;;;;;;10478626;28;20107;-56
2023/02/08 20:02:13;;;;;;;5.05;3.53;;;15.80;62.00;;;;;;10478052;28;20013;-56
2023/02/08 20:07:13;;;;;;;5.28;2.92;;;15.80;61.80;;;;;;10473539;28;20029;-56
2023/02/08 20:12:14;;;;;;;4.50;2.88;;;15.80;61.80;;;;;;10487838;28;20016;-55
2023/02/08 20:17:14;;;;;;;5.45;3.60;;;15.80;61.60;;;;;;10488198;28;20464;-56
2023/02/08 20:22:15;;;;;;;4.18;3.17;;;15.80;61.60;;;;;;10499466;28;20239;-55
2023/02/08 20:27:17;;;;;;;6.30;3.15;;;15.80;61.50;;;;;;10489136;28;20058;-56
2023/02/08 20:32:17;;;;;;;3.95;2.78;;;15.80;61.30;;;;;;10486676;28;20023;-55
2023/02/08 20:37:21;;;;;;;5.10;2.30;;;15.80;61.10;;;;;;10483962;28;20438;-57
2023/02/08 20:42:22;;;;;;;4.20;2.30;;;15.70;61.10;;;;;;10501754;28;20038;-55
2023/02/08 20:47:23;;;;;;;6.03;3.05;;;15.60;61.10;;;;;;10485324;28;20115;-55
2023/02/08 20:52:23;;;;;;;4.75;3.28;;;15.50;61.30;;;;;;10431466;28;20541;-59
2023/02/08 20:57:24;;;;;;;6.70;3.60;;;15.40;61.40;;;;;;10487333;28;20035;-55
2023/02/08 21:02:25;;;;;;;5.43;3.40;;;15.30;61.40;;;;;;10487443;28;20626;-56
2023/02/08 21:07:25;;;;;;;4.07;3.03;;;15.30;61.60;;;;;;10480241;28;20079;-57
2023/02/08 21:12:26;;;;;;;4.93;2.90;;;15.20;61.70;;;;;;10491597;28;20124;-57
2023/02/08 21:17:27;;;;;;;5.13;3.75;;;15.10;61.70;;;;;;10477184;28;20667;-56
2023/02/08 21:22:27;;;;;;;4.70;3.03;;;15.00;61.90;;;;;;10496980;28;20127;-57
2023/02/08 21:27:28;;;;;;;4.25;2.60;;;15.00;62.10;;;;;;10495052;28;20112;-55
2023/02/08 21:32:29;;;;;;;6.45;3.80;;;14.90;61.90;;;;;;10480271;28;20069;-55
2023/02/08 21:37:32;;;;;;;4.60;3.17;;;14.80;62.10;;;;;;10498615;28;20017;-56
2023/02/08 21:42:33;;;;;;;4.97;3.17;;;14.80;62.30;;;;;;10476861;28;20016;-57
2023/02/08 21:47:34;;;;;;;5.45;3.38;;;14.70;62.30;;;;;;10481201;28;20108;-57
2023/02/08 21:57:53;;;;;;;5.13;3.05;;;14.60;62.20;;;;;;10479580;28;20111;-57
2023/02/08 22:02:54;;;;;;;4.63;2.85;;;14.60;62.60;;;;;;10476152;28;20044;-56
2023/02/08 22:07:56;;;;;;;3.83;2.53;;;14.60;63.10;;;;;;10494524;28;20098;-56
2023/02/08 22:12:58;;;;;;;5.57;3.05;;;14.50;63.40;;;;;;10475689;28;20096;-57
2023/02/08 22:18:01;;;;;;;5.47;3.22;;;14.50;63.40;;;;;;10475714;28;20125;-56
2023/02/08 22:23:02;;;;;;;6.18;3.10;;;14.40;64.10;;;;;;10483956;28;20033;-58
2023/02/08 22:28:02;;;;;;;5.10;2.72;;;14.40;64.10;;;;;;10492849;28;20176;-57
2023/02/08 22:33:03;;;;;;;4.32;3.22;;;14.40;64.40;;;;;;10492669;28;20194;-56
2023/02/08 22:38:04;;;;;;;4.50;2.67;;;14.40;64.40;;;;;;10463653;28;20495;-56
2023/02/08 22:43:04;;;;;;;3.83;2.83;;;14.30;64.30;;;;;;10492095;28;20095;-55
2023/02/08 22:48:05;;;;;;;4.65;2.90;;;14.30;64.40;;;;;;10474043;28;20036;-56
2023/02/08 22:53:06;;;;;;;4.97;3.90;;;14.20;64.50;;;;;;10474160;28;20705;-55
2023/02/08 22:58:06;;;;;;;3.60;2.65;;;14.20;64.30;;;;;;10474591;28;20044;-57
2023/02/08 23:03:07;;;;;;;5.13;4.43;;;14.30;63.50;;;;;;10496260;28;20110;-56
2023/02/08 23:08:10;;;;;;;5.45;3.10;;;14.20;62.50;;;;;;10478242;28;20135;-57
2023/02/08 23:13:11;;;;;;;4.03;2.60;;;14.20;63.00;;;;;;10473393;28;20032;-56
2023/02/08 23:18:12;;;;;;;4.63;3.22;;;14.20;63.70;;;;;;10472622;28;20021;-56
2023/02/08 23:23:12;;;;;;;4.10;2.75;;;14.20;63.90;;;;;;10472575;28;20540;-57
2023/02/08 23:28:13;;;;;;;3.53;2.70;;;14.10;64.00;;;;;;10490273;28;20048;-56
2023/02/08 23:33:14;;;;;;;4.35;3.08;;;14.10;64.00;;;;;;10472043;28;20496;-54
2023/02/08 23:38:15;;;;;;;4.80;3.30;;;14.10;64.10;;;;;;10493672;28;20479;-56
2023/02/08 23:43:15;;;;;;;4.53;2.85;;;14.00;64.00;;;;;;10471959;28;20107;-57
2023/02/08 23:48:16;;;;;;;3.88;2.55;;;14.00;64.10;;;;;;10441267;28;20120;-57
2023/02/08 23:53:17;;;;;;;3.83;3.30;;;14.00;64.20;;;;;;10502160;28;20112;-57
2023/02/08 23:58:17;;;;;;;4.07;2.80;;;14.00;64.10;;;;;;10488937;28;20473;-56
